createdAt,value
2019-02-18T00:01:18.598Z,94.30
2019-02-18T00:03:46.746Z,94.30
2019-02-18T00:06:14.902Z,94.20
2019-02-18T00:08:42.934Z,94.10
2019-02-18T00:11:11.031Z,94.20
2019-02-18T00:13:39.087Z,94.30
2019-02-18T00:16:07.180Z,94.20
2019-02-18T00:18:35.295Z,94.40
2019-02-18T00:21:08.316Z,94.40
2019-02-18T00:23:36.620Z,95.00
2019-02-18T00:26:04.977Z,94.90
2019-02-18T00:28:33.176Z,94.50
2019-02-18T00:31:01.353Z,94.60
2019-02-18T00:33:29.479Z,94.50
2019-02-18T00:35:57.617Z,94.60
2019-02-18T00:38:26.309Z,94.40
2019-02-18T00:40:54.501Z,94.50
2019-02-18T00:43:22.637Z,94.60
2019-02-18T00:45:50.792Z,94.60
2019-02-18T00:48:18.922Z,94.50
2019-02-18T00:50:47.038Z,94.40
2019-02-18T00:53:15.135Z,94.40
2019-02-18T00:55:43.341Z,94.40
2019-02-18T00:58:11.590Z,94.60
2019-02-18T01:00:39.651Z,94.40
2019-02-18T01:03:07.838Z,94.30
2019-02-18T01:05:36.054Z,94.40
2019-02-18T01:08:04.117Z,94.30
2019-02-18T01:10:32.223Z,94.30
2019-02-18T01:13:00.259Z,94.30
2019-02-18T01:15:28.288Z,94.20
2019-02-18T01:17:56.424Z,94.60
2019-02-18T01:20:24.519Z,94.40
2019-02-18T01:22:52.787Z,94.40
2019-02-18T01:25:20.862Z,94.40
2019-02-18T01:27:48.917Z,94.40
2019-02-18T01:30:16.960Z,94.50
2019-02-18T01:32:45.275Z,94.50
2019-02-18T01:35:13.513Z,94.50
2019-02-18T01:37:45.676Z,94.50
2019-02-18T01:40:13.160Z,94.50
2019-02-18T01:42:41.185Z,94.50
2019-02-18T01:45:10.943Z,94.60
2019-02-18T01:47:39.068Z,94.60
2019-02-18T01:50:13.039Z,94.80
2019-02-18T01:52:41.154Z,94.90
2019-02-18T01:55:10.809Z,94.80
2019-02-18T01:57:39.005Z,95.00
2019-02-18T02:00:11.081Z,95.00
2019-02-18T02:02:39.415Z,95.10
2019-02-18T02:05:08.820Z,95.30
2019-02-18T02:07:36.930Z,95.20
2019-02-18T02:10:05.780Z,95.20
2019-02-18T02:12:34.052Z,95.20
2019-02-18T02:15:04.624Z,95.20
2019-02-18T02:17:32.827Z,95.20
2019-02-18T02:20:00.863Z,95.30
2019-02-18T02:22:29.018Z,95.50
2019-02-18T02:24:57.151Z,95.30
2019-02-18T02:27:25.197Z,95.20
2019-02-18T02:29:53.259Z,95.20
2019-02-18T02:32:21.397Z,95.20
2019-02-18T02:34:49.570Z,95.10
2019-02-18T02:37:17.621Z,94.90
2019-02-18T02:39:45.833Z,94.70
2019-02-18T02:42:13.931Z,94.50
2019-02-18T02:44:42.052Z,94.30
2019-02-18T02:47:10.136Z,94.10
2019-02-18T02:49:38.335Z,94.10
2019-02-18T02:52:06.457Z,93.80
2019-02-18T02:54:34.468Z,93.90
2019-02-18T02:57:02.757Z,93.60
2019-02-18T02:59:30.977Z,93.60
2019-02-18T03:01:59.588Z,93.50
2019-02-18T03:04:27.711Z,93.50
2019-02-18T03:06:55.798Z,93.40
2019-02-18T03:09:23.942Z,93.40
2019-02-18T03:11:52.101Z,93.30
2019-02-18T03:14:20.228Z,93.10
2019-02-18T03:16:48.421Z,92.90
2019-02-18T03:19:16.657Z,92.80
2019-02-18T03:21:45.038Z,92.70
2019-02-18T03:24:13.116Z,92.80
2019-02-18T03:26:41.236Z,92.70
2019-02-18T03:30:03.764Z,92.70
2019-02-18T03:32:43.026Z,92.60
2019-02-18T03:35:11.078Z,92.30
2019-02-18T03:37:39.473Z,92.10
2019-02-18T03:40:13.113Z,92.10
2019-02-18T03:42:41.800Z,92.10
2019-02-18T03:45:10.033Z,91.90
2019-02-18T03:47:38.146Z,92.00
2019-02-18T03:50:06.522Z,91.70
2019-02-18T03:52:34.670Z,91.70
2019-02-18T03:55:03.091Z,91.60
2019-02-18T03:57:31.172Z,91.70
2019-02-18T03:59:59.371Z,91.70
2019-02-18T04:02:27.469Z,91.60
2019-02-18T04:04:55.551Z,91.60
2019-02-18T04:07:23.684Z,91.60
2019-02-18T04:09:52.801Z,91.60
2019-02-18T04:12:20.951Z,91.60
2019-02-18T04:14:49.205Z,91.50
2019-02-18T04:17:17.379Z,91.50
2019-02-18T04:19:45.455Z,91.40
2019-02-18T04:22:13.676Z,91.70
2019-02-18T04:24:41.822Z,91.60
2019-02-18T04:27:09.911Z,91.30
2019-02-18T04:29:39.118Z,91.10
2019-02-18T04:32:07.199Z,91.00
2019-02-18T04:34:35.404Z,91.00
2019-02-18T04:37:03.553Z,90.80
2019-02-18T04:39:32.003Z,90.90
2019-02-18T04:42:00.227Z,90.90
2019-02-18T04:44:28.276Z,90.70
2019-02-18T04:46:56.310Z,91.00
2019-02-18T04:49:24.466Z,90.70
2019-02-18T04:51:52.499Z,90.60
2019-02-18T04:54:20.640Z,90.50
2019-02-18T04:56:48.772Z,90.50
2019-02-18T04:59:16.873Z,90.50
2019-02-18T05:01:45.151Z,90.70
2019-02-18T05:04:14.181Z,90.50
2019-02-18T05:06:43.549Z,90.40
2019-02-18T05:09:11.814Z,90.70
2019-02-18T05:11:39.996Z,90.40
2019-02-18T05:14:08.152Z,90.30
2019-02-18T05:16:36.436Z,90.20
2019-02-18T05:19:04.509Z,90.10
2019-02-18T05:21:32.535Z,90.10
2019-02-18T05:24:00.591Z,90.00
2019-02-18T05:26:28.932Z,90.10
2019-02-18T05:28:57.016Z,90.00
2019-02-18T05:31:25.078Z,90.00
2019-02-18T05:33:53.312Z,89.90
2019-02-18T05:36:21.338Z,90.30
2019-02-18T05:38:49.530Z,90.10
2019-02-18T05:41:17.670Z,89.80
2019-02-18T05:43:45.765Z,90.10
2019-02-18T05:46:13.881Z,90.00
2019-02-18T05:48:42.095Z,89.70
2019-02-18T05:51:10.211Z,90.10
2019-02-18T05:53:38.368Z,90.00
2019-02-18T05:56:06.462Z,89.80
2019-02-18T05:58:34.460Z,89.90
2019-02-18T06:01:02.661Z,89.90
2019-02-18T06:03:30.705Z,89.90
2019-02-18T06:05:58.869Z,90.00
2019-02-18T06:08:27.128Z,89.90
2019-02-18T06:10:55.271Z,90.10
2019-02-18T06:13:25.408Z,90.20
2019-02-18T06:15:53.398Z,90.20
2019-02-18T06:18:21.551Z,90.60
2019-02-18T06:20:49.665Z,90.30
2019-02-18T06:23:17.787Z,90.20
2019-02-18T06:25:45.959Z,90.50
2019-02-18T06:28:13.995Z,90.20
2019-02-18T06:30:42.117Z,90.50
2019-02-18T06:33:10.228Z,90.10
2019-02-18T06:35:38.349Z,90.00
2019-02-18T06:38:06.506Z,90.00
2019-02-18T06:40:34.667Z,90.30
2019-02-18T06:43:03.892Z,90.40
2019-02-18T06:45:38.773Z,90.20
2019-02-18T06:48:35.442Z,90.20
2019-02-18T06:51:03.648Z,90.10
2019-02-18T06:53:31.793Z,90.10
2019-02-18T06:55:59.962Z,90.20
2019-02-18T06:58:35.602Z,90.30
2019-02-18T07:01:26.001Z,90.20
2019-02-18T07:04:13.660Z,90.10
2019-02-18T07:06:54.129Z,90.10
2019-02-18T07:09:31.184Z,90.10
2019-02-18T07:12:04.606Z,90.00
2019-02-18T07:14:32.722Z,90.10
2019-02-18T07:17:00.958Z,90.10
2019-02-18T07:19:30.298Z,90.30
2019-02-18T07:21:58.483Z,90.30
2019-02-18T07:24:26.695Z,90.50
2019-02-18T07:26:54.800Z,90.80
2019-02-18T07:29:22.990Z,91.00
2019-02-18T07:31:51.066Z,91.10
2019-02-18T07:34:19.087Z,91.20
2019-02-18T07:36:47.318Z,91.40
2019-02-18T07:39:15.450Z,91.60
2019-02-18T07:41:43.706Z,91.60
2019-02-18T07:44:11.891Z,91.70
2019-02-18T07:46:40.215Z,92.50
2019-02-18T07:49:08.385Z,92.70
2019-02-18T07:51:36.497Z,92.40
2019-02-18T07:54:04.640Z,91.60
2019-02-18T07:56:32.681Z,91.10
2019-02-18T07:59:00.986Z,91.10
2019-02-18T08:01:29.034Z,90.40
2019-02-18T08:03:57.110Z,90.50
2019-02-18T08:06:25.363Z,88.90
2019-02-18T08:08:53.537Z,87.30
2019-02-18T08:11:22.656Z,87.00
2019-02-18T08:13:50.823Z,89.00
2019-02-18T08:16:18.887Z,86.20
2019-02-18T08:18:47.228Z,85.00
2019-02-18T08:21:16.228Z,85.40
2019-02-18T08:23:44.357Z,85.10
2019-02-18T08:26:15.287Z,84.50
2019-02-18T08:28:43.349Z,84.50
2019-02-18T08:31:11.577Z,84.40
2019-02-18T08:33:39.641Z,83.60
2019-02-18T08:36:07.815Z,83.50
2019-02-18T08:38:35.940Z,83.20
2019-02-18T08:41:04.163Z,83.10
2019-02-18T08:43:32.439Z,82.10
2019-02-18T08:46:02.627Z,81.80
2019-02-18T08:48:30.817Z,81.50
2019-02-18T08:50:58.865Z,81.10
2019-02-18T08:53:26.867Z,80.70
2019-02-18T08:55:54.936Z,80.80
2019-02-18T08:58:22.977Z,80.80
2019-02-18T09:00:51.056Z,80.10
2019-02-18T09:03:19.148Z,79.80
2019-02-18T09:05:47.175Z,79.70
2019-02-18T09:08:15.191Z,80.80
2019-02-18T09:10:43.219Z,78.80
2019-02-18T09:13:11.337Z,78.10
2019-02-18T09:15:39.548Z,79.20
2019-02-18T09:18:07.718Z,77.60
2019-02-18T09:20:35.892Z,77.90
2019-02-18T09:23:21.838Z,77.60
2019-02-18T09:25:54.210Z,75.20
2019-02-18T09:28:23.402Z,75.60
2019-02-18T09:30:53.664Z,75.40
2019-02-18T09:33:21.710Z,76.20
2019-02-18T09:35:49.747Z,75.90
2019-02-18T09:38:24.780Z,75.10
2019-02-18T09:40:51.430Z,74.80
2019-02-18T09:43:19.177Z,74.70
2019-02-18T09:45:47.229Z,74.50
2019-02-18T09:48:15.340Z,74.10
2019-02-18T09:50:44.666Z,74.30
2019-02-18T09:53:12.879Z,73.80
2019-02-18T09:55:41.017Z,73.80
2019-02-18T09:58:09.300Z,74.90
2019-02-18T10:00:37.673Z,74.40
2019-02-18T10:03:05.747Z,74.20
2019-02-18T10:05:33.973Z,74.40
2019-02-18T10:08:02.159Z,73.30
2019-02-18T10:10:30.340Z,73.80
2019-02-18T10:12:59.680Z,74.10
2019-02-18T10:15:27.952Z,74.00
2019-02-18T10:17:55.979Z,72.70
2019-02-18T10:20:24.197Z,72.20
2019-02-18T10:22:52.201Z,72.80
2019-02-18T10:25:20.324Z,72.60
2019-02-18T10:27:48.700Z,74.10
2019-02-18T10:30:16.808Z,77.10
2019-02-18T10:32:45.075Z,72.60
2019-02-18T10:35:13.213Z,74.30
2019-02-18T10:37:41.585Z,73.60
2019-02-18T10:40:10.114Z,69.90
2019-02-18T10:42:39.344Z,69.90
2019-02-18T10:45:09.288Z,70.20
2019-02-18T10:47:38.000Z,71.90
2019-02-18T10:50:07.575Z,71.30
2019-02-18T10:52:35.902Z,70.20
2019-02-18T10:55:03.997Z,70.40
2019-02-18T10:57:32.174Z,69.30
2019-02-18T11:00:00.389Z,67.60
2019-02-18T11:02:28.540Z,67.30
2019-02-18T11:04:56.612Z,66.60
2019-02-18T11:07:27.190Z,65.70
2019-02-18T11:09:55.389Z,66.90
2019-02-18T11:12:23.530Z,67.30
2019-02-18T11:14:51.612Z,66.40
2019-02-18T11:17:19.772Z,66.00
2019-02-18T11:19:48.100Z,66.90
2019-02-18T11:22:16.987Z,65.80
2019-02-18T11:24:45.266Z,65.80
2019-02-18T11:27:13.397Z,66.40
2019-02-18T11:29:41.470Z,66.20
2019-02-18T11:32:09.491Z,66.90
2019-02-18T11:34:37.655Z,67.00
2019-02-18T11:37:06.142Z,66.90
2019-02-18T11:39:34.232Z,67.10
2019-02-18T11:42:02.294Z,66.80
2019-02-18T11:44:30.412Z,66.60
2019-02-18T11:46:58.482Z,66.70
2019-02-18T11:49:26.718Z,67.30
2019-02-18T11:51:55.025Z,67.70
2019-02-18T11:54:23.099Z,67.40
2019-02-18T11:56:51.248Z,67.20
2019-02-18T11:59:24.201Z,66.80
2019-02-18T12:01:49.332Z,67.30
2019-02-18T12:04:17.544Z,67.60
2019-02-18T12:06:45.618Z,67.10
2019-02-18T12:09:13.975Z,66.80
2019-02-18T12:11:42.183Z,66.70
2019-02-18T12:14:10.245Z,66.90
2019-02-18T12:16:38.370Z,67.10
2019-02-18T12:19:07.617Z,67.50
2019-02-18T12:21:35.830Z,66.70
2019-02-18T12:24:03.918Z,66.20
2019-02-18T12:26:32.371Z,66.40
2019-02-18T12:29:00.653Z,66.70
2019-02-18T12:31:28.796Z,66.10
2019-02-18T12:33:56.873Z,66.60
2019-02-18T12:36:24.978Z,65.50
2019-02-18T12:38:53.086Z,64.50
2019-02-18T12:41:21.248Z,63.90
2019-02-18T12:43:49.478Z,61.90
2019-02-18T12:46:17.527Z,61.60
2019-02-18T12:48:45.784Z,61.70
2019-02-18T12:51:15.339Z,59.90
2019-02-18T12:53:46.090Z,59.20
2019-02-18T12:56:13.673Z,58.60
2019-02-18T12:58:42.054Z,58.40
2019-02-18T13:01:10.419Z,58.40
2019-02-18T13:03:38.593Z,57.80
2019-02-18T13:06:06.732Z,57.80
2019-02-18T13:08:34.942Z,57.60
2019-02-18T13:11:03.202Z,57.70
2019-02-18T13:13:31.450Z,56.80
2019-02-18T13:15:59.691Z,56.20
2019-02-18T13:18:28.309Z,56.40
2019-02-18T13:20:56.560Z,56.10
2019-02-18T13:23:24.808Z,56.10
2019-02-18T13:25:53.085Z,56.30
2019-02-18T13:28:21.270Z,56.80
2019-02-18T13:30:49.560Z,56.10
2019-02-18T13:33:18.696Z,56.50
2019-02-18T13:35:46.856Z,56.00
2019-02-18T13:38:15.229Z,56.00
2019-02-18T13:40:43.467Z,55.90
2019-02-18T13:43:11.635Z,55.60
2019-02-18T13:45:39.803Z,55.50
2019-02-18T13:48:08.066Z,55.50
2019-02-18T13:50:36.278Z,55.70
2019-02-18T13:53:04.791Z,55.40
2019-02-18T13:55:33.005Z,55.30
2019-02-18T13:58:01.122Z,55.80
2019-02-18T14:00:30.900Z,55.80
2019-02-18T14:02:59.122Z,55.60
2019-02-18T14:05:27.246Z,55.40
2019-02-18T14:07:55.367Z,55.50
2019-02-18T14:10:23.474Z,55.80
2019-02-18T14:12:51.582Z,55.70
2019-02-18T14:15:20.464Z,56.20
2019-02-18T14:17:50.486Z,55.90
2019-02-18T14:20:18.899Z,55.90
2019-02-18T14:22:47.077Z,55.70
2019-02-18T14:25:15.400Z,56.10
2019-02-18T14:27:43.475Z,55.80
2019-02-18T14:30:13.030Z,55.90
2019-02-18T14:32:41.341Z,56.10
2019-02-18T14:35:10.013Z,56.30
2019-02-18T14:37:38.211Z,56.00
2019-02-18T14:40:08.269Z,56.30
2019-02-18T14:42:36.655Z,56.00
2019-02-18T14:45:05.158Z,55.50
2019-02-18T14:47:34.540Z,55.60
2019-02-18T14:50:02.833Z,55.70
2019-02-18T14:52:31.114Z,55.60
2019-02-18T14:54:59.263Z,55.80
2019-02-18T14:57:27.526Z,55.60
2019-02-18T14:59:55.580Z,55.70
2019-02-18T15:02:23.808Z,56.00
2019-02-18T15:04:51.900Z,56.10
2019-02-18T15:07:20.264Z,56.10
2019-02-18T15:09:48.606Z,56.10
2019-02-18T15:12:18.187Z,55.90
2019-02-18T15:14:46.363Z,55.80
2019-02-18T15:17:14.568Z,56.20
2019-02-18T15:19:42.727Z,56.40
2019-02-18T15:22:10.797Z,56.00
2019-02-18T15:24:38.930Z,56.20
2019-02-18T15:27:07.629Z,56.30
2019-02-18T15:29:35.834Z,56.30
2019-02-18T15:32:04.289Z,56.50
2019-02-18T15:34:32.378Z,56.20
2019-02-18T15:37:00.965Z,56.40
2019-02-18T15:39:29.321Z,56.40
2019-02-18T15:41:57.363Z,56.60
2019-02-18T15:44:25.919Z,56.90
2019-02-18T15:46:54.221Z,57.20
2019-02-18T15:49:23.016Z,57.00
2019-02-18T15:51:52.051Z,56.70
2019-02-18T15:54:20.914Z,56.70
2019-02-18T15:56:49.183Z,56.80
2019-02-18T15:59:19.644Z,56.60
2019-02-18T16:01:47.825Z,57.10
2019-02-18T16:04:16.610Z,56.90
2019-02-18T16:06:44.977Z,57.00
2019-02-18T16:09:13.130Z,57.50
2019-02-18T16:11:41.391Z,57.20
2019-02-18T16:14:09.558Z,57.50
2019-02-18T16:16:37.938Z,57.60
2019-02-18T16:19:06.065Z,57.30
2019-02-18T16:21:34.242Z,57.50
2019-02-18T16:24:02.694Z,57.30
2019-02-18T16:26:31.084Z,57.50
2019-02-18T16:28:59.270Z,57.50
2019-02-18T16:31:41.168Z,58.00
2019-02-18T16:34:12.895Z,59.00
2019-02-18T16:36:41.131Z,58.30
2019-02-18T16:39:10.365Z,58.80
2019-02-18T16:41:38.580Z,58.50
2019-02-18T16:44:06.990Z,58.20
2019-02-18T16:46:35.165Z,58.80
2019-02-18T16:49:03.610Z,58.50
2019-02-18T16:51:31.784Z,58.70
2019-02-18T16:53:59.856Z,58.80
2019-02-18T16:56:27.897Z,58.90
2019-02-18T16:58:56.081Z,59.30
2019-02-18T17:01:24.651Z,59.20
2019-02-18T17:03:53.944Z,59.40
2019-02-18T17:06:22.059Z,59.80
2019-02-18T17:08:50.251Z,59.70
2019-02-18T17:11:18.310Z,60.30
2019-02-18T17:13:46.507Z,60.90
2019-02-18T17:16:14.990Z,61.00
2019-02-18T17:18:44.230Z,61.10
2019-02-18T17:21:13.364Z,61.20
2019-02-18T17:23:41.502Z,61.40
2019-02-18T17:26:09.780Z,61.90
2019-02-18T17:28:38.042Z,62.10
2019-02-18T17:31:06.188Z,62.60
2019-02-18T17:33:34.286Z,62.70
2019-02-18T17:36:02.551Z,63.30
2019-02-18T17:38:30.738Z,62.80
2019-02-18T17:40:59.161Z,64.50
2019-02-18T17:43:29.546Z,63.60
2019-02-18T17:45:57.878Z,65.10
2019-02-18T17:48:26.464Z,64.80
2019-02-18T17:50:54.658Z,64.30
2019-02-18T17:53:22.926Z,64.30
2019-02-18T17:55:51.048Z,64.80
2019-02-18T17:58:19.146Z,65.10
2019-02-18T18:00:49.633Z,65.00
2019-02-18T18:03:17.884Z,65.00
2019-02-18T18:05:46.083Z,65.20
2019-02-18T18:08:14.216Z,65.00
2019-02-18T18:10:42.370Z,65.50
2019-02-18T18:13:10.557Z,65.30
2019-02-18T18:15:40.109Z,65.10
2019-02-18T18:18:08.923Z,65.40
2019-02-18T18:20:37.443Z,65.40
2019-02-18T18:23:06.383Z,65.20
2019-02-18T18:25:34.692Z,65.70
2019-02-18T18:28:03.012Z,65.60
2019-02-18T18:30:31.051Z,65.60
2019-02-18T18:32:59.112Z,65.90
2019-02-18T18:35:27.310Z,66.10
2019-02-18T18:37:55.785Z,66.40
2019-02-18T18:40:43.398Z,66.70
2019-02-18T18:43:11.779Z,67.00
2019-02-18T18:45:40.027Z,67.30
2019-02-18T18:48:09.178Z,67.50
2019-02-18T18:50:38.689Z,67.60
2019-02-18T18:53:07.219Z,68.00
2019-02-18T18:55:35.431Z,68.10
2019-02-18T18:58:03.919Z,68.40
2019-02-18T19:00:34.706Z,68.40
2019-02-18T19:03:03.401Z,68.40
2019-02-18T19:05:31.562Z,68.80
2019-02-18T19:08:00.267Z,69.00
2019-02-18T19:10:29.168Z,69.00
2019-02-18T19:12:58.155Z,69.30
2019-02-18T19:15:27.263Z,69.50
2019-02-18T19:17:56.814Z,69.20
2019-02-18T19:20:26.004Z,69.60
2019-02-18T19:22:54.756Z,69.80
2019-02-18T19:25:23.749Z,69.50
2019-02-18T19:27:52.356Z,69.80
2019-02-18T19:30:23.891Z,70.00
2019-02-18T19:32:52.341Z,70.00
2019-02-18T19:35:23.798Z,69.80
2019-02-18T19:37:52.343Z,70.40
2019-02-18T19:40:21.459Z,70.30
2019-02-18T19:42:49.847Z,70.60
2019-02-18T19:45:19.442Z,70.70
2019-02-18T19:47:47.723Z,70.80
2019-02-18T19:50:18.132Z,70.80
2019-02-18T19:52:46.615Z,70.90
2019-02-18T19:55:14.787Z,71.30
2019-02-18T19:57:43.198Z,71.60
2019-02-18T20:00:14.144Z,71.90
2019-02-18T20:02:43.268Z,73.20
2019-02-18T20:05:12.101Z,73.00
2019-02-18T20:07:40.841Z,73.20
2019-02-18T20:10:09.496Z,73.90
2019-02-18T20:12:37.868Z,73.70
2019-02-18T20:15:06.523Z,74.10
2019-02-18T20:17:34.703Z,74.30
2019-02-18T20:20:03.086Z,74.40
2019-02-18T20:22:31.416Z,74.90
2019-02-18T20:24:59.483Z,74.80
2019-02-18T20:27:27.553Z,74.80
2019-02-18T20:29:55.610Z,74.70
2019-02-18T20:32:24.015Z,75.20
2019-02-18T20:34:52.034Z,75.50
2019-02-18T20:37:20.132Z,75.70
2019-02-18T20:39:48.249Z,76.20
2019-02-18T20:42:17.081Z,76.70
2019-02-18T20:44:45.259Z,77.20
2019-02-18T20:47:13.800Z,77.80
2019-02-18T20:49:41.933Z,78.20
2019-02-18T20:52:10.185Z,78.50
2019-02-18T20:54:38.342Z,78.50
2019-02-18T20:57:06.455Z,78.30
2019-02-18T20:59:34.605Z,77.70
2019-02-18T21:02:02.706Z,77.40
2019-02-18T21:04:30.855Z,77.00
2019-02-18T21:06:58.964Z,76.60
2019-02-18T21:09:28.125Z,76.10
2019-02-18T21:11:56.235Z,76.20
2019-02-18T21:14:24.597Z,75.80
2019-02-18T21:16:52.713Z,76.20
2019-02-18T21:19:21.212Z,75.50
2019-02-18T21:21:49.364Z,75.40
2019-02-18T21:24:17.519Z,75.40
2019-02-18T21:26:45.658Z,75.30
2019-02-18T21:29:13.880Z,75.10
2019-02-18T21:31:41.948Z,75.00
2019-02-18T21:34:10.993Z,75.20
2019-02-18T21:36:39.107Z,74.90
2019-02-18T21:39:11.879Z,74.90
2019-02-18T21:41:40.785Z,74.90
2019-02-18T21:44:09.036Z,74.80
2019-02-18T21:46:37.122Z,74.50
2019-02-18T21:49:05.266Z,74.40
2019-02-18T21:51:33.777Z,74.20
2019-02-18T21:54:01.825Z,74.10
2019-02-18T21:56:29.926Z,74.10
2019-02-18T21:58:58.061Z,73.90
2019-02-18T22:01:27.663Z,72.30
2019-02-18T22:03:55.884Z,73.00
2019-02-18T22:06:24.239Z,73.30
2019-02-18T22:08:52.308Z,73.30
2019-02-18T22:11:20.379Z,73.90
2019-02-18T22:13:49.484Z,74.10
2019-02-18T22:16:17.755Z,73.80
2019-02-18T22:18:46.072Z,75.70
2019-02-18T22:21:14.202Z,75.80
2019-02-18T22:23:42.777Z,76.60
2019-02-18T22:26:10.905Z,74.00
2019-02-18T22:28:38.975Z,73.40
2019-02-18T22:31:07.033Z,73.30
2019-02-18T22:33:35.265Z,73.20
2019-02-18T22:36:03.622Z,72.00
2019-02-18T22:38:31.799Z,71.40
2019-02-18T22:41:00.341Z,71.40
2019-02-18T22:43:28.389Z,71.60
2019-02-18T22:45:56.498Z,73.00
2019-02-18T22:48:24.538Z,73.20
2019-02-18T22:50:52.804Z,73.70
2019-02-18T22:53:20.948Z,73.20
2019-02-18T22:55:49.331Z,73.20
2019-02-18T22:58:17.939Z,73.90
2019-02-18T23:00:57.806Z,73.70
2019-02-18T23:03:25.984Z,74.30
2019-02-18T23:05:54.011Z,74.50
2019-02-18T23:08:22.410Z,74.10
2019-02-18T23:10:50.542Z,74.10
2019-02-18T23:13:19.171Z,74.40
2019-02-18T23:15:47.405Z,74.30
2019-02-18T23:18:16.146Z,75.10
2019-02-18T23:20:44.769Z,74.50
2019-02-18T23:23:12.956Z,74.60
2019-02-18T23:25:41.070Z,74.50
2019-02-18T23:28:09.305Z,74.70
2019-02-18T23:30:38.950Z,75.00
2019-02-18T23:33:07.535Z,75.20
2019-02-18T23:35:35.623Z,75.30
2019-02-18T23:38:03.681Z,75.30
2019-02-18T23:40:31.748Z,75.80
2019-02-18T23:42:59.869Z,76.00
2019-02-18T23:45:28.318Z,76.40
2019-02-18T23:47:56.420Z,76.50
2019-02-18T23:50:24.609Z,76.40
2019-02-18T23:52:52.697Z,76.40
2019-02-18T23:55:28.182Z,76.90
2019-02-18T23:57:53.621Z,76.70
